Alta Floresta, Brazil
Current Conditions -  °F | °C
As of 8:00 AM on Sunday 23 Nov 2014 (Local Time) from SBAT Reporting Station
Rain Showers Rain Showers  
Wind Chill: 25°   Ceiling: 8000
Heat Index: 26°   Visibility: 6mi
Dew Point: 24°   Wind: 0mph
Humidity: 94%   Direction: NA
Pressure: 29.88"   Gusts: NA
Location:  9.9°S, 55.91°W
Report Text: SBAT 231100Z 00000KT 9999 VCSH BKN080 25/24 Q1012
Loading
Personal Weather Stations






























Interactive Weather Map New forecast layout! Learn more

10-Day Weather Forecast

Advertisements
Track Severe Weather on mobile